RJAWRJSF

Guest
Details From RJAW - IWO JIMA
To RJSF - Fukushima
Flight Number -
Tags decoded
Created
Modified
Stats Distance 13,140 nm / 24,336 km
Max Altitude 0 ft / 0 m
Waypoints 6
Social Downloads 1
Likes 0
Share VATSIM

Download

Looking for another format? Having issues loading an existing format? Contact us
Advertisement - Login to hide

Notes

Requested: RJAW VASKO B586 SABRI Y873 FITTO Y87 UTIBO Y108 INUBO Y808 COLOR Y37 AKAGI V15 KALON Y37 GOSEN RJSF Unmatched points: B586 Y873 FITTO UTIBO Y108 INUBO Y808 V15 KALON GOSEN

Route

RJAW VASKO Y87 COLOR AKAGI RJSF

ID Type Via Altitude Latitude Longitude Leg Dist Tot Dist Heading (true) Name
O RJAW APT - 0 ft / 0 m 24.78399˚ 141.32272˚ - 0 nm - IWO JIMA
VASKO FIX - 0 ft / 0 m 25.00439˚ 142.03694˚ 41 nm 41 nm 71° / 71° -
Y87 APT - 0 ft / 0 m 44.78750˚ -86.00426˚ 5861 nm 5902 nm 32° / 137° Empire
COLOR FIX - 0 ft / 0 m 46.67333˚ -52.51333˚ 1397 nm 7300 nm 73° / 98° -
AKAGI FIX - 0 ft / 0 m 36.39121˚ 139.69898˚ 5778 nm 13079 nm 350° / 188° -
O RJSF APT - 0 ft / 0 m 37.22743˚ 140.42797˚ 61 nm 13140 nm 35° / 35° Fukushima

Altitude Profile

Advertisement - Login to hide

Weather


0- 5 10 15 20 25 30 35+ Temperature / ° C

Clouds and Precipitation
Forecast for 2017-12-16 06:00 UTC. Updated an hour ago

Ground ~20,000 ft ~40,000 ft Winds

RJAW

Details ICAO RJAW (IWO)
Name IWO JIMA
Region Japan
Timezone Asia/Tokyo (UTC+9.0)
Stats Elevation 384 ft / 117 m (AMSL)
Location 24.783986° 141.322722°
Runways 1
Magnetic Variation 3.566° W

METAR

RJAW 160400Z 10015KT 9999 FEW015 BKN080 BKN120 22/18 Q1014 RMK 2CU015 6AC080 7AC120 A2996

Decode

TAF

Not found

Departure Runways

ID Width Length Bearing (true) Bearing (mag) Surface Threshold Offset Overrun Length
07 200 ft / 61 m 8,676 ft / 2,645 m 67.97° 71.54° Asphalt 0 ft / 0 m 550 ft / 168 m
25 200 ft / 61 m 8,676 ft / 2,645 m 247.98° 251.55° Asphalt 0 ft / 0 m 550 ft / 168 m

RJSF

Details ICAO RJSF (FKS)
Name Fukushima
Region Japan
Timezone Asia/Tokyo (UTC+9.0)
Stats Elevation 1,220 ft / 372 m (AMSL)
Location 37.227429° 140.427974°
Runways 1
Magnetic Variation 7.868° W

METAR

RJSF 160400Z 01008KT 330V050 9999 FEW030 10/M01 Q1008

Decode

TAF

TAF RJSF 152305Z 1600/1706 18004KT 9999 FEW030 SCT050 BECMG 1601/1603 32008KT TEMPO 1700/1706 32015G25KT

Decode

Destination Runways

ID Width Length Bearing (true) Bearing (mag) Surface Threshold Offset Overrun Length
01 197 ft / 60 m 8,219 ft / 2,505 m 2.19° 10.06° Asphalt 0 ft / 0 m 197 ft / 60 m
19 197 ft / 60 m 8,219 ft / 2,505 m 182.19° 190.06° Asphalt 0 ft / 0 m 197 ft / 60 m

Approach Navaids

Runway Type Ident Frequency Range Bearing (true) Bearing (mag) Slope Elevation
01 Localiser IFK 110.50 MHz 18 nm / 33 km 2.19° 10.06° - 1,220 ft / 372 m (AMSL)
01 Glidescope IFK 110.50 MHz 10 nm / 19 km 2.19° 10.06° 3.00° 1,220 ft / 372 m (AMSL)
01 DME IFK 110.50 MHz 18 nm / 33 km - - - 1,223 ft / 373 m (AMSL)

Popular Alternatives